Time;durP1;ratioP1;P1;durP2;ratioP2;P2;SDS_P1;SDS_P2;PMS_P1;PMS_P2;Temp;Humidity;BMP_temperature;BMP_pressure;BME280_temperature;BME280_humidity;BME280_pressure;Samples;Min_cycle;Max_cycle;Signal;HPM_P1;HPM_P2
2023/12/17 00:01:50;;;;;;;0.00;0.00;;;24.80;49.50;;;;;;5112918;28;20669;-54
2023/12/17 00:04:21;;;;;;;0.00;0.00;;;24.90;49.50;;;;;;5112158;28;20594;-51
2023/12/17 00:06:52;;;;;;;0.00;0.00;;;24.90;49.40;;;;;;5111969;28;20189;-55
2023/12/17 00:09:24;;;;;;;0.00;0.00;;;24.90;49.40;;;;;;5112146;28;20251;-56
2023/12/17 00:11:55;;;;;;;0.00;0.00;;;24.90;49.30;;;;;;5112307;28;20201;-51
2023/12/17 00:14:26;;;;;;;0.00;0.00;;;25.00;49.30;;;;;;5112206;28;20224;-54
2023/12/17 00:16:57;;;;;;;0.00;0.00;;;25.00;49.20;;;;;;5112151;28;20193;-48
2023/12/17 00:19:27;;;;;;;0.00;0.00;;;25.00;49.20;;;;;;5093978;28;20186;-53
2023/12/17 00:21:58;;;;;;;0.00;0.00;;;25.10;49.20;;;;;;5111661;28;20198;-53
2023/12/17 00:24:30;;;;;;;0.00;0.00;;;25.10;49.10;;;;;;5111988;28;20692;-52
2023/12/17 00:27:01;;;;;;;0.00;0.00;;;25.10;49.10;;;;;;5111790;28;20193;-51
2023/12/17 00:29:32;;;;;;;0.00;0.00;;;25.20;49.20;;;;;;5111490;28;20200;-54
2023/12/17 00:32:03;;;;;;;0.00;0.00;;;25.20;49.10;;;;;;5111804;28;20193;-54
2023/12/17 00:34:33;;;;;;;0.00;0.00;;;25.20;49.00;;;;;;5111572;28;20214;-55
2023/12/17 00:37:04;;;;;;;0.00;0.00;;;25.30;49.00;;;;;;5112114;28;20200;-56
2023/12/17 00:39:36;;;;;;;0.00;0.00;;;25.30;49.00;;;;;;5112135;28;20197;-53
2023/12/17 00:42:07;;;;;;;0.00;0.00;;;25.30;48.90;;;;;;5111378;28;20197;-54
2023/12/17 00:44:38;;;;;;;0.00;0.00;;;25.30;48.90;;;;;;5111179;28;20587;-50
2023/12/17 00:47:09;;;;;;;0.00;0.00;;;25.30;48.90;;;;;;5111758;28;20201;-54
2023/12/17 00:49:40;;;;;;;0.00;0.00;;;25.30;48.90;;;;;;5111562;28;20199;-51
2023/12/17 00:52:10;;;;;;;0.00;0.00;;;25.40;48.90;;;;;;5112112;28;20633;-52
2023/12/17 00:54:43;;;;;;;0.00;0.00;;;25.40;48.80;;;;;;5111316;28;20213;-51
2023/12/17 00:57:14;;;;;;;0.00;0.00;;;25.40;48.80;;;;;;5111909;28;20197;-48
2023/12/17 00:59:44;;;;;;;0.00;0.00;;;25.50;48.80;;;;;;5111523;28;20200;-51
2023/12/17 01:02:15;;;;;;;0.00;0.00;;;25.50;48.70;;;;;;5111396;28;20189;-53
2023/12/17 01:04:46;;;;;;;0.00;0.00;;;25.50;48.70;;;;;;5111356;28;20742;-53
2023/12/17 01:07:16;;;;;;;0.00;0.00;;;25.50;48.60;;;;;;5111387;28;20198;-52
2023/12/17 01:09:49;;;;;;;0.00;0.00;;;25.60;48.70;;;;;;5110818;28;20189;-54
2023/12/17 01:12:20;;;;;;;0.00;0.00;;;25.60;48.60;;;;;;5111506;28;20247;-54
2023/12/17 01:14:50;;;;;;;0.00;0.00;;;25.60;48.60;;;;;;5111375;28;20216;-53
2023/12/17 01:17:21;;;;;;;0.00;0.00;;;25.70;48.60;;;;;;5111265;28;20648;-53
2023/12/17 01:19:52;;;;;;;0.00;0.00;;;25.70;48.60;;;;;;5111232;28;20200;-50
2023/12/17 01:22:23;;;;;;;0.00;0.00;;;25.70;48.50;;;;;;5111367;28;20198;-51
2023/12/17 01:24:55;;;;;;;0.00;0.00;;;25.70;48.50;;;;;;5110932;28;20230;-55
2023/12/17 01:27:26;;;;;;;0.00;0.00;;;25.80;48.50;;;;;;5110621;28;20189;-57
2023/12/17 01:29:57;;;;;;;0.00;0.00;;;25.80;48.50;;;;;;5110902;28;20201;-54
2023/12/17 01:32:28;;;;;;;0.00;0.00;;;25.80;48.50;;;;;;5111724;28;20201;-57
2023/12/17 01:34:58;;;;;;;0.00;0.00;;;25.80;49.10;;;;;;5114754;28;20221;-49
2023/12/17 01:37:29;;;;;;;0.00;0.00;;;25.90;48.50;;;;;;5115199;28;20193;-53
2023/12/17 01:40:02;;;;;;;0.00;0.00;;;25.90;48.40;;;;;;5114949;28;20190;-50
2023/12/17 01:42:32;;;;;;;0.00;0.00;;;25.90;48.40;;;;;;5114816;28;20205;-50
2023/12/17 01:45:03;;;;;;;0.00;0.00;;;25.90;48.40;;;;;;5114614;28;20232;-58
2023/12/17 01:47:35;;;;;;;0.00;0.00;;;26.00;48.50;;;;;;5114882;28;20247;-54
2023/12/17 01:50:06;;;;;;;0.00;0.00;;;26.00;48.40;;;;;;5114858;28;20623;-51
2023/12/17 01:52:37;;;;;;;0.00;0.00;;;26.00;48.40;;;;;;5114869;28;20734;-55
2023/12/17 01:55:11;;;;;;;0.00;0.00;;;26.00;48.30;;;;;;5114606;28;20214;-50
2023/12/17 01:57:42;;;;;;;0.00;0.00;;;26.10;48.40;;;;;;5112295;22;20670;-43
2023/12/17 02:00:14;;;;;;;0.00;0.00;;;26.10;48.30;;;;;;5073461;28;20195;-42
2023/12/17 02:02:45;;;;;;;0.00;0.00;;;26.10;48.30;;;;;;5073509;28;20201;-42
2023/12/17 02:05:17;;;;;;;0.00;0.00;;;26.20;48.30;;;;;;5072838;28;20237;-44
2023/12/17 02:07:47;;;;;;;0.00;0.00;;;26.20;48.30;;;;;;5073159;28;20200;-49
2023/12/17 02:10:20;;;;;;;0.00;0.00;;;26.20;48.30;;;;;;5073125;28;20199;-48
2023/12/17 02:12:51;;;;;;;0.00;0.00;;;26.20;48.20;;;;;;5073273;28;20199;-49
2023/12/17 02:15:22;;;;;;;0.00;0.00;;;26.20;48.20;;;;;;5073259;28;20218;-49
2023/12/17 02:17:52;;;;;;;0.00;0.00;;;26.30;48.30;;;;;;5073131;28;20201;-45
2023/12/17 02:20:23;;;;;;;0.00;0.00;;;26.30;48.30;;;;;;5072935;28;20202;-42
2023/12/17 02:22:56;;;;;;;0.00;0.00;;;26.30;48.30;;;;;;5073698;28;20561;-43
2023/12/17 02:25:28;;;;;;;0.00;0.00;;;26.30;48.30;;;;;;5072837;28;20226;-44
2023/12/17 02:28:00;;;;;;;0.00;0.00;;;26.30;48.30;;;;;;5072659;28;20202;-43
2023/12/17 02:30:31;;;;;;;0.00;0.00;;;26.30;48.30;;;;;;5070577;28;20190;-44
2023/12/17 02:33:01;;;;;;;0.00;0.00;;;26.40;48.40;;;;;;5073348;28;20186;-43
2023/12/17 02:35:32;;;;;;;0.00;0.00;;;26.40;48.30;;;;;;5073178;28;20687;-43
2023/12/17 02:38:03;;;;;;;0.00;0.00;;;26.40;48.20;;;;;;5073299;28;20205;-47
2023/12/17 02:40:35;;;;;;;0.00;0.00;;;26.40;48.10;;;;;;5072902;28;20195;-43
2023/12/17 02:43:06;;;;;;;0.00;0.00;;;26.50;48.40;;;;;;5072967;28;20668;-46
2023/12/17 02:45:37;;;;;;;0.00;0.00;;;26.50;48.10;;;;;;5072341;28;20408;-43
2023/12/17 02:48:08;;;;;;;0.00;0.00;;;26.50;48.00;;;;;;5072795;28;20234;-42
2023/12/17 02:50:38;;;;;;;0.00;0.00;;;26.50;48.00;;;;;;5072546;28;20199;-49
2023/12/17 02:53:09;;;;;;;0.00;0.00;;;26.50;48.00;;;;;;5072710;28;20203;-45
2023/12/17 02:55:42;;;;;;;0.00;0.00;;;26.50;48.00;;;;;;5072799;28;20222;-45
2023/12/17 02:58:13;;;;;;;0.00;0.00;;;26.60;48.00;;;;;;5084853;22;20234;-48
2023/12/17 03:00:43;;;;;;;0.00;0.00;;;26.60;48.00;;;;;;5073290;28;20202;-52
2023/12/17 03:03:14;;;;;;;0.00;0.00;;;26.60;48.00;;;;;;5072617;28;20191;-53
2023/12/17 03:05:45;;;;;;;0.00;0.00;;;26.60;48.10;;;;;;5071502;28;20233;-49
2023/12/17 03:08:16;;;;;;;0.00;0.00;;;26.60;48.10;;;;;;5072316;28;20194;-51
2023/12/17 03:10:48;;;;;;;0.00;0.00;;;26.60;48.20;;;;;;5072587;28;20222;-59
2023/12/17 03:13:19;;;;;;;0.00;0.00;;;26.60;48.20;;;;;;5072469;28;20198;-52
2023/12/17 03:15:50;;;;;;;0.00;0.00;;;26.60;48.30;;;;;;5072049;28;20215;-54
2023/12/17 03:18:21;;;;;;;0.00;0.00;;;26.70;48.20;;;;;;5072402;28;20191;-54
2023/12/17 03:20:51;;;;;;;0.00;0.00;;;26.70;48.10;;;;;;5069283;28;20195;-58
2023/12/17 03:23:22;;;;;;;0.00;0.00;;;26.70;48.10;;;;;;5071515;28;20738;-55
2023/12/17 03:25:55;;;;;;;0.00;0.00;;;26.70;48.10;;;;;;5070831;28;20222;-58
2023/12/17 03:28:26;;;;;;;0.00;0.00;;;26.80;48.00;;;;;;5071943;28;20193;-55
2023/12/17 03:30:57;;;;;;;0.00;0.00;;;26.80;48.00;;;;;;5070098;28;20198;-53
2023/12/17 03:33:27;;;;;;;0.00;0.00;;;26.80;48.00;;;;;;5071549;28;20203;-52
2023/12/17 03:35:58;;;;;;;0.00;0.00;;;26.90;48.00;;;;;;5071742;28;20195;-57
2023/12/17 03:38:29;;;;;;;0.00;0.00;;;26.90;48.00;;;;;;5071411;28;20186;-51
2023/12/17 03:41:01;;;;;;;0.00;0.00;;;26.90;47.90;;;;;;5070815;28;20191;-51
2023/12/17 03:43:32;;;;;;;0.00;0.00;;;26.90;47.90;;;;;;5071394;28;20205;-57
2023/12/17 03:46:03;;;;;;;0.00;0.00;;;27.00;47.90;;;;;;5071237;28;20590;-54
2023/12/17 03:48:33;;;;;;;0.00;0.00;;;27.00;47.80;;;;;;5065293;28;20191;-49
2023/12/17 03:51:04;;;;;;;0.00;0.00;;;27.00;47.50;;;;;;5070427;28;20217;-53
2023/12/17 03:53:35;;;;;;;0.00;0.00;;;27.00;47.10;;;;;;5070500;28;20195;-49
2023/12/17 03:56:11;;;;;;;0.00;0.00;;;27.10;47.00;;;;;;5070806;28;20225;-46
2023/12/17 03:58:42;;;;;;;0.00;0.00;;;27.10;47.00;;;;;;5069133;22;20281;-41
2023/12/17 04:01:13;;;;;;;0.00;0.00;;;27.10;47.00;;;;;;5050697;28;20199;-48
2023/12/17 04:03:44;;;;;;;0.00;0.00;;;27.20;47.10;;;;;;5050734;28;20192;-40
2023/12/17 04:06:15;;;;;;;0.00;0.00;;;27.20;47.10;;;;;;5050791;28;20622;-47
2023/12/17 04:08:46;;;;;;;0.00;0.00;;;27.30;47.20;;;;;;5049986;28;20195;-42
2023/12/17 04:11:18;;;;;;;0.00;0.00;;;27.30;47.20;;;;;;5050683;28;20667;-42
2023/12/17 04:13:49;;;;;;;0.00;0.00;;;27.40;47.30;;;;;;5051250;28;20556;-44
2023/12/17 04:16:20;;;;;;;0.00;0.00;;;27.40;47.20;;;;;;5050369;28;20196;-53
2023/12/17 04:18:50;;;;;;;0.00;0.00;;;27.40;47.30;;;;;;5051343;28;20384;-45
2023/12/17 04:21:21;;;;;;;0.00;0.00;;;27.50;47.20;;;;;;5050500;28;20210;-44
2023/12/17 04:23:52;;;;;;;0.00;0.00;;;27.50;47.00;;;;;;5050779;28;20578;-45
2023/12/17 04:26:25;;;;;;;0.00;0.00;;;27.50;47.00;;;;;;5049363;28;20317;-46
2023/12/17 04:28:55;;;;;;;0.00;0.00;;;27.50;47.00;;;;;;5050374;28;20196;-45
2023/12/17 04:31:26;;;;;;;0.00;0.00;;;27.60;47.00;;;;;;5032960;28;20194;-50
2023/12/17 04:33:57;;;;;;;0.00;0.00;;;27.60;47.00;;;;;;5045244;28;20219;-45
2023/12/17 04:36:28;;;;;;;0.00;0.00;;;27.60;46.90;;;;;;5050570;28;20566;-48
2023/12/17 04:38:59;;;;;;;0.00;0.00;;;27.70;46.90;;;;;;5050057;28;20187;-46
2023/12/17 04:41:33;;;;;;;0.00;0.00;;;27.70;46.90;;;;;;5050637;28;20206;-47
2023/12/17 04:44:04;;;;;;;0.00;0.00;;;27.70;46.80;;;;;;5050907;28;20243;-54
2023/12/17 04:46:35;;;;;;;0.00;0.00;;;27.70;46.90;;;;;;5050303;28;20223;-49
2023/12/17 04:49:05;;;;;;;0.00;0.00;;;27.70;46.80;;;;;;5051344;28;20188;-47
2023/12/17 04:51:36;;;;;;;0.00;0.00;;;27.80;46.90;;;;;;5049860;28;20195;-45
2023/12/17 04:54:07;;;;;;;0.00;0.00;;;27.80;46.80;;;;;;5050777;28;20211;-45
2023/12/17 04:56:39;;;;;;;0.00;0.00;;;27.80;46.80;;;;;;5049993;28;20196;-45
2023/12/17 04:59:10;;;;;;;0.00;0.00;;;27.80;46.80;;;;;;5048666;28;20561;-47
2023/12/17 05:01:41;;;;;;;0.00;0.00;;;27.80;46.70;;;;;;5050041;28;20203;-44
2023/12/17 05:04:12;;;;;;;0.00;0.00;;;27.90;46.80;;;;;;5065458;28;20725;-46
2023/12/17 05:06:42;;;;;;;0.00;0.00;;;27.90;46.80;;;;;;5065111;28;20227;-48
2023/12/17 05:09:13;;;;;;;0.00;0.00;;;27.90;46.80;;;;;;5053496;28;20190;-49
2023/12/17 05:11:46;;;;;;;0.00;0.00;;;27.90;46.90;;;;;;5053778;28;20564;-42
2023/12/17 05:14:16;;;;;;;0.00;0.00;;;27.90;46.90;;;;;;5054576;28;20215;-42
2023/12/17 05:16:47;;;;;;;0.00;0.00;;;27.90;47.00;;;;;;5054296;28;20202;-41
2023/12/17 05:19:18;;;;;;;0.00;0.00;;;27.90;47.00;;;;;;5053854;28;20196;-51
2023/12/17 05:21:48;;;;;;;0.00;0.00;;;27.90;47.10;;;;;;5054600;28;20206;-45
2023/12/17 05:24:19;;;;;;;0.00;0.00;;;27.90;47.10;;;;;;5053740;28;20219;-42
2023/12/17 05:26:52;;;;;;;0.00;0.00;;;27.90;47.20;;;;;;5053495;28;20718;-45
2023/12/17 05:29:22;;;;;;;0.00;0.00;;;27.90;46.40;;;;;;5053460;28;20648;-46
2023/12/17 05:31:53;;;;;;;0.00;0.00;;;27.90;46.20;;;;;;5053107;28;20192;-48
2023/12/17 05:34:24;;;;;;;0.00;0.00;;;27.90;46.20;;;;;;5054473;28;20218;-46
2023/12/17 05:36:54;;;;;;;0.00;0.00;;;27.90;46.00;;;;;;5053592;28;20221;-44
2023/12/17 05:39:25;;;;;;;0.05;0.05;;;27.90;45.90;;;;;;5054080;28;20199;-45
2023/12/17 05:41:58;;;;;;;0.00;0.00;;;27.90;46.60;;;;;;5053292;28;20199;-43
2023/12/17 05:44:28;;;;;;;0.00;0.00;;;27.90;46.10;;;;;;5053514;28;20219;-42
2023/12/17 05:46:59;;;;;;;0.00;0.00;;;28.00;46.20;;;;;;5053724;28;20219;-48
2023/12/17 05:49:30;;;;;;;0.00;0.00;;;28.00;46.10;;;;;;5040450;28;20196;-41
2023/12/17 05:52:01;;;;;;;0.00;0.00;;;28.00;46.20;;;;;;5032185;28;20208;-45
2023/12/17 05:54:31;;;;;;;0.00;0.00;;;28.00;46.20;;;;;;5048876;28;20679;-46
2023/12/17 05:57:04;;;;;;;0.00;0.00;;;28.10;46.30;;;;;;5053992;28;20191;-45
2023/12/17 05:59:35;;;;;;;0.00;0.00;;;28.10;46.30;;;;;;5053158;28;20195;-48
2023/12/17 06:02:06;;;;;;;0.00;0.00;;;28.10;46.40;;;;;;5052908;28;20644;-50
2023/12/17 06:04:37;;;;;;;0.00;0.00;;;28.10;46.40;;;;;;5053237;28;20211;-43
2023/12/17 06:07:08;;;;;;;0.00;0.00;;;28.10;46.40;;;;;;5052723;28;20699;-52
2023/12/17 06:09:40;;;;;;;0.00;0.00;;;28.10;46.30;;;;;;5052697;28;20200;-52
2023/12/17 06:12:12;;;;;;;0.00;0.00;;;28.20;46.40;;;;;;5053162;28;20195;-44
2023/12/17 06:14:43;;;;;;;0.00;0.00;;;28.20;46.40;;;;;;5052944;28;20219;-48
2023/12/17 06:17:15;;;;;;;0.00;0.00;;;28.20;46.40;;;;;;5052701;28;20200;-45
2023/12/17 06:19:46;;;;;;;0.00;0.00;;;28.20;46.50;;;;;;5051035;28;20202;-44
2023/12/17 06:22:17;;;;;;;0.00;0.00;;;28.20;46.40;;;;;;5052888;28;20196;-43
2023/12/17 06:24:48;;;;;;;0.00;0.00;;;28.30;46.40;;;;;;5055938;28;20210;-49
2023/12/17 06:27:20;;;;;;;0.00;0.00;;;28.20;46.30;;;;;;5073226;28;20234;-49
2023/12/17 06:29:52;;;;;;;0.00;0.00;;;28.30;46.30;;;;;;5073004;28;20202;-47
2023/12/17 06:32:23;;;;;;;0.00;0.00;;;28.30;46.40;;;;;;5070330;28;20198;-50
2023/12/17 06:34:53;;;;;;;0.00;0.00;;;28.30;46.20;;;;;;5051308;28;20230;-44
2023/12/17 06:37:24;;;;;;;0.00;0.00;;;28.30;46.10;;;;;;5052754;28;20191;-47
2023/12/17 06:39:55;;;;;;;0.00;0.00;;;28.20;46.00;;;;;;5053236;28;20203;-46
2023/12/17 06:42:27;;;;;;;0.00;0.00;;;28.20;46.10;;;;;;5052658;28;20207;-47
2023/12/17 06:44:58;;;;;;;0.00;0.00;;;28.20;46.20;;;;;;5049147;28;20219;-46
2023/12/17 06:47:29;;;;;;;0.00;0.00;;;28.20;46.20;;;;;;5052753;28;20223;-45
2023/12/17 06:50:00;;;;;;;0.00;0.00;;;28.20;46.20;;;;;;5053274;28;20362;-44
2023/12/17 06:52:30;;;;;;;0.00;0.00;;;28.20;46.30;;;;;;5036486;28;20196;-49
2023/12/17 06:55:01;;;;;;;0.00;0.00;;;28.20;46.30;;;;;;5033053;28;20217;-49
2023/12/17 06:57:34;;;;;;;0.00;0.00;;;28.20;46.40;;;;;;5033620;28;20208;-47
2023/12/17 07:00:05;;;;;;;0.00;0.00;;;28.20;46.30;;;;;;5032580;28;20200;-46
2023/12/17 07:02:36;;;;;;;0.00;0.00;;;28.20;46.30;;;;;;5051560;28;20204;-51
2023/12/17 07:05:08;;;;;;;0.00;0.00;;;28.20;46.30;;;;;;5052413;28;20683;-42
2023/12/17 07:07:39;;;;;;;0.00;0.00;;;28.20;46.30;;;;;;5052384;28;20230;-42
2023/12/17 07:10:11;;;;;;;0.00;0.00;;;28.10;46.20;;;;;;5032146;28;20196;-45
2023/12/17 07:12:44;;;;;;;0.00;0.00;;;28.10;46.10;;;;;;5046778;28;20199;-45
2023/12/17 07:15:15;;;;;;;0.00;0.00;;;28.10;46.00;;;;;;5051578;28;20336;-50
2023/12/17 07:17:46;;;;;;;0.00;0.00;;;28.10;46.70;;;;;;5052023;28;20204;-45
2023/12/17 07:20:17;;;;;;;0.00;0.00;;;28.10;46.00;;;;;;5051856;28;20196;-43
2023/12/17 07:22:48;;;;;;;0.00;0.00;;;28.10;46.00;;;;;;5052105;28;20587;-47
2023/12/17 07:25:19;;;;;;;0.00;0.00;;;28.00;46.00;;;;;;5052235;28;20223;-47
2023/12/17 07:27:52;;;;;;;0.00;0.00;;;28.00;46.00;;;;;;5051706;28;20597;-43
2023/12/17 07:30:23;;;;;;;0.00;0.00;;;28.00;46.00;;;;;;5050783;28;20289;-45
2023/12/17 07:32:53;;;;;;;0.00;0.00;;;28.00;46.10;;;;;;5052448;28;20522;-45
2023/12/17 07:35:24;;;;;;;0.00;0.00;;;27.90;46.10;;;;;;5052071;28;20211;-50
2023/12/17 07:37:55;;;;;;;0.00;0.00;;;27.90;46.10;;;;;;5051799;28;20667;-45
2023/12/17 07:40:26;;;;;;;0.00;0.00;;;27.90;46.10;;;;;;5040359;28;20701;-42
2023/12/17 07:42:59;;;;;;;0.00;0.00;;;27.90;46.20;;;;;;5049679;28;20203;-49
2023/12/17 07:45:29;;;;;;;0.00;0.00;;;27.80;46.20;;;;;;5051089;28;20207;-43
2023/12/17 07:48:00;;;;;;;0.00;0.00;;;27.80;46.20;;;;;;5050387;28;20219;-44
2023/12/17 07:50:31;;;;;;;0.00;0.00;;;27.80;46.20;;;;;;5051373;28;20652;-44
2023/12/17 07:53:02;;;;;;;0.00;0.00;;;27.80;46.20;;;;;;5051295;28;20195;-51
2023/12/17 07:55:32;;;;;;;0.00;0.00;;;27.80;46.20;;;;;;5051343;28;20238;-44
2023/12/17 07:58:05;;;;;;;0.00;0.00;;;27.80;46.20;;;;;;5043288;28;20196;-41
2023/12/17 08:00:36;;;;;;;0.00;0.00;;;27.80;46.20;;;;;;5045461;28;20202;-46
2023/12/17 08:03:06;;;;;;;0.00;0.00;;;27.80;46.20;;;;;;5050839;28;20199;-42
2023/12/17 08:05:37;;;;;;;0.00;0.00;;;27.70;46.10;;;;;;5050436;28;20215;-45
2023/12/17 08:08:08;;;;;;;0.00;0.00;;;27.70;46.20;;;;;;5050928;28;20571;-46
2023/12/17 08:10:38;;;;;;;0.00;0.00;;;27.70;46.20;;;;;;5051280;28;20659;-46
2023/12/17 08:13:13;;;;;;;0.00;0.00;;;27.70;46.10;;;;;;5051065;28;20207;-44
2023/12/17 08:15:43;;;;;;;0.00;0.00;;;27.70;46.20;;;;;;5049441;28;20219;-45
2023/12/17 08:18:14;;;;;;;0.00;0.00;;;27.60;46.10;;;;;;5050449;28;20195;-46
2023/12/17 08:20:45;;;;;;;0.00;0.00;;;27.60;46.80;;;;;;5050495;28;20219;-43
2023/12/17 08:23:16;;;;;;;0.00;0.00;;;27.60;46.20;;;;;;5050888;28;20211;-43
2023/12/17 08:25:47;;;;;;;0.00;0.00;;;27.60;46.20;;;;;;5050649;28;20691;-42
2023/12/17 08:28:20;;;;;;;0.00;0.00;;;27.50;46.10;;;;;;5044859;28;20223;-42
2023/12/17 08:30:51;;;;;;;0.00;0.00;;;27.50;46.10;;;;;;5044432;28;20222;-44
2023/12/17 08:33:22;;;;;;;0.00;0.00;;;27.50;46.20;;;;;;5049313;28;20187;-51
2023/12/17 08:35:53;;;;;;;0.00;0.00;;;27.50;46.20;;;;;;5050920;28;20219;-43
2023/12/17 08:38:23;;;;;;;0.00;0.00;;;27.40;46.10;;;;;;5049007;28;20206;-49
2023/12/17 08:40:54;;;;;;;0.00;0.00;;;27.40;46.20;;;;;;5049872;28;20590;-41
2023/12/17 08:43:27;;;;;;;0.00;0.00;;;27.40;46.20;;;;;;5033616;28;20196;-48
2023/12/17 08:45:57;;;;;;;0.00;0.00;;;27.30;46.20;;;;;;5054144;28;20191;-46
2023/12/17 08:48:28;;;;;;;0.00;0.00;;;27.30;46.20;;;;;;5061160;28;20237;-48
2023/12/17 08:50:59;;;;;;;0.00;0.00;;;27.30;46.30;;;;;;5053343;28;20207;-46
2023/12/17 08:53:29;;;;;;;0.00;0.00;;;27.30;46.20;;;;;;5053840;28;20651;-46
2023/12/17 08:56:02;;;;;;;0.00;0.00;;;27.30;46.30;;;;;;5055079;28;20194;-47
2023/12/17 08:58:34;;;;;;;0.00;0.00;;;27.20;46.30;;;;;;5053474;28;20211;-42
2023/12/17 09:01:05;;;;;;;0.00;0.00;;;27.20;46.30;;;;;;5050072;28;20203;-49
2023/12/17 09:03:35;;;;;;;0.00;0.00;;;27.20;46.30;;;;;;5053355;28;20582;-46
2023/12/17 09:06:06;;;;;;;0.00;0.00;;;27.20;46.30;;;;;;5052691;28;20210;-49
2023/12/17 09:08:37;;;;;;;0.00;0.00;;;27.20;46.30;;;;;;5052968;28;20227;-46
2023/12/17 09:11:08;;;;;;;0.00;0.00;;;27.10;46.20;;;;;;5065978;28;20194;-48
2023/12/17 09:13:41;;;;;;;0.00;0.00;;;27.10;46.10;;;;;;5034319;28;20558;-48
2023/12/17 09:16:12;;;;;;;0.00;0.00;;;27.10;46.20;;;;;;5049965;28;20230;-54
2023/12/17 09:18:43;;;;;;;0.00;0.00;;;27.10;46.20;;;;;;5054996;28;20195;-49
2023/12/17 09:21:14;;;;;;;0.00;0.00;;;27.00;46.20;;;;;;5054217;28;20253;-41
2023/12/17 09:23:44;;;;;;;0.00;0.00;;;27.00;46.20;;;;;;5053979;28;20200;-40
2023/12/17 09:26:15;;;;;;;0.00;0.00;;;27.00;46.20;;;;;;5054639;28;20203;-44
2023/12/17 09:28:49;;;;;;;0.00;0.00;;;27.00;46.30;;;;;;5054345;28;20223;-50
2023/12/17 09:31:20;;;;;;;0.00;0.00;;;26.90;46.20;;;;;;5054445;28;20199;-40
2023/12/17 09:33:51;;;;;;;0.00;0.00;;;26.90;46.30;;;;;;5053793;28;20219;-44
2023/12/17 09:36:23;;;;;;;0.00;0.00;;;26.90;46.60;;;;;;5053628;28;20215;-40
2023/12/17 09:38:53;;;;;;;0.00;0.00;;;26.80;46.30;;;;;;5053411;28;20725;-43
2023/12/17 09:41:24;;;;;;;0.00;0.00;;;26.80;46.30;;;;;;5054201;28;20191;-42
2023/12/17 09:43:57;;;;;;;0.00;0.00;;;26.80;46.30;;;;;;5053686;28;20220;-41
2023/12/17 09:46:28;;;;;;;0.00;0.00;;;26.80;46.30;;;;;;5053921;28;20652;-40
2023/12/17 09:48:58;;;;;;;0.00;0.00;;;26.80;46.30;;;;;;5053420;28;20223;-42
2023/12/17 09:51:30;;;;;;;0.00;0.00;;;26.70;46.30;;;;;;5053184;28;20459;-42
2023/12/17 09:54:01;;;;;;;0.00;0.00;;;26.70;46.30;;;;;;5053372;28;20212;-46
2023/12/17 09:56:32;;;;;;;0.00;0.00;;;26.70;46.30;;;;;;5053259;28;20191;-42
2023/12/17 09:59:05;;;;;;;0.00;0.00;;;26.70;46.30;;;;;;5053952;28;20199;-40
2023/12/17 10:01:35;;;;;;;0.00;0.00;;;26.70;46.30;;;;;;5053108;28;20192;-40
2023/12/17 10:04:06;;;;;;;0.00;0.00;;;26.60;46.20;;;;;;5052552;28;20222;-44
2023/12/17 10:06:37;;;;;;;0.00;0.00;;;26.60;46.30;;;;;;5053996;28;20191;-43
2023/12/17 10:09:08;;;;;;;0.00;0.00;;;26.60;46.20;;;;;;5053303;28;20273;-46
2023/12/17 10:11:39;;;;;;;0.00;0.00;;;26.60;46.20;;;;;;5053853;28;20230;-44
2023/12/17 10:14:23;;;;;;;0.00;0.00;;;26.50;46.20;;;;;;5052922;28;20212;-43
2023/12/17 10:16:54;;;;;;;0.00;0.00;;;26.50;46.20;;;;;;5053141;28;20202;-40
2023/12/17 10:19:25;;;;;;;0.00;0.00;;;26.50;46.20;;;;;;5052412;28;20278;-41
2023/12/17 10:21:56;;;;;;;0.00;0.00;;;26.50;46.30;;;;;;5052107;28;20274;-42
2023/12/17 10:24:38;;;;;;;0.00;0.00;;;26.40;46.20;;;;;;5052674;28;20221;-41
2023/12/17 10:27:18;;;;;;;0.00;0.00;;;26.40;46.30;;;;;;5072023;28;20194;-43
2023/12/17 10:29:52;;;;;;;0.00;0.00;;;26.40;46.30;;;;;;5072169;28;20221;-43
2023/12/17 10:32:25;;;;;;;0.00;0.00;;;26.30;46.30;;;;;;5050891;28;20195;-43
2023/12/17 10:34:56;;;;;;;0.00;0.00;;;26.30;46.30;;;;;;5053250;28;20573;-47
2023/12/17 10:37:27;;;;;;;0.00;0.00;;;26.30;46.30;;;;;;5053074;28;20203;-43
2023/12/17 10:39:59;;;;;;;0.00;0.00;;;26.30;46.40;;;;;;5053492;28;20210;-42
2023/12/17 10:42:32;;;;;;;0.00;0.00;;;26.30;46.40;;;;;;5050675;28;20188;-45
2023/12/17 10:45:07;;;;;;;0.05;0.05;;;26.20;46.30;;;;;;5050484;28;20211;-44
2023/12/17 10:47:40;;;;;;;0.00;0.00;;;26.20;46.30;;;;;;5050657;28;20224;-46
2023/12/17 10:50:11;;;;;;;0.00;0.00;;;26.20;46.30;;;;;;5040983;28;20192;-48
2023/12/17 10:52:42;;;;;;;0.00;0.00;;;26.20;46.30;;;;;;5043547;28;20196;-43
2023/12/17 10:55:14;;;;;;;0.00;0.00;;;26.20;46.30;;;;;;5045545;28;20211;-49
2023/12/17 10:57:48;;;;;;;0.00;0.00;;;26.10;46.20;;;;;;5051743;28;20191;-45
2023/12/17 11:00:24;;;;;;;0.00;0.00;;;26.10;46.20;;;;;;5042935;28;20192;-45
2023/12/17 11:03:00;;;;;;;0.00;0.00;;;26.10;46.20;;;;;;5043430;28;20644;-48
2023/12/17 11:05:31;;;;;;;0.00;0.00;;;26.00;46.20;;;;;;5042160;28;20574;-46
2023/12/17 11:08:02;;;;;;;0.00;0.00;;;26.00;46.20;;;;;;5035296;28;20227;-47
2023/12/17 11:10:38;;;;;;;0.00;0.00;;;26.00;46.30;;;;;;5032808;28;20684;-45
2023/12/17 11:13:10;;;;;;;0.10;0.10;;;26.00;46.30;;;;;;5051148;28;20209;-46
2023/12/17 11:15:42;;;;;;;0.00;0.00;;;25.90;46.30;;;;;;5052371;28;20211;-50
2023/12/17 11:18:13;;;;;;;0.00;0.00;;;25.90;46.30;;;;;;5052288;28;20577;-45
2023/12/17 11:20:46;;;;;;;0.00;0.00;;;25.90;46.20;;;;;;5051931;28;20188;-50
2023/12/17 11:23:19;;;;;;;0.00;0.00;;;25.90;46.30;;;;;;5051939;28;20276;-44
2023/12/17 11:25:49;;;;;;;0.00;0.00;;;25.80;46.30;;;;;;5049891;28;20207;-50
2023/12/17 11:28:27;;;;;;;0.00;0.00;;;25.80;46.30;;;;;;5051956;28;20222;-47
2023/12/17 11:31:00;;;;;;;0.00;0.00;;;25.80;46.30;;;;;;5052000;28;20191;-48
2023/12/17 11:33:31;;;;;;;0.00;0.00;;;25.80;46.40;;;;;;5049715;28;20670;-46
2023/12/17 11:36:03;;;;;;;0.00;0.00;;;25.80;46.40;;;;;;5051434;28;20218;-45
2023/12/17 11:38:35;;;;;;;0.00;0.00;;;25.70;46.40;;;;;;5051255;28;20282;-43
2023/12/17 11:41:05;;;;;;;0.00;0.00;;;25.70;46.40;;;;;;5048947;28;20279;-48
2023/12/17 11:43:36;;;;;;;0.00;0.00;;;25.70;46.40;;;;;;5051720;28;20188;-52
2023/12/17 11:46:13;;;;;;;0.00;0.00;;;25.70;46.40;;;;;;5049241;28;20589;-44
2023/12/17 11:48:45;;;;;;;0.03;0.03;;;25.60;46.30;;;;;;5051370;28;20226;-43
2023/12/17 11:51:27;;;;;;;0.00;0.00;;;25.60;46.30;;;;;;5051423;28;20656;-49
2023/12/17 11:53:58;;;;;;;0.00;0.00;;;25.60;46.40;;;;;;5050485;28;20203;-47
2023/12/17 11:56:34;;;;;;;0.00;0.00;;;25.60;46.40;;;;;;5049132;28;20538;-43
2023/12/17 11:59:05;;;;;;;0.00;0.00;;;25.60;46.40;;;;;;5048775;28;20202;-42
2023/12/17 12:01:38;;;;;;;0.00;0.00;;;25.50;46.40;;;;;;5051255;28;20579;-46
2023/12/17 12:04:08;;;;;;;0.00;0.00;;;25.50;46.40;;;;;;5048452;28;20214;-48
2023/12/17 12:06:39;;;;;;;0.00;0.00;;;25.50;46.50;;;;;;5050765;28;20195;-49
2023/12/17 12:09:21;;;;;;;0.00;0.00;;;25.50;46.50;;;;;;5051667;28;20219;-49
2023/12/17 12:11:51;;;;;;;0.00;0.00;;;25.40;46.50;;;;;;5051588;28;20206;-43
2023/12/17 12:14:22;;;;;;;0.00;0.00;;;25.40;46.50;;;;;;5051412;28;20691;-43
2023/12/17 12:16:55;;;;;;;0.00;0.00;;;25.40;46.50;;;;;;5050819;28;20679;-47
2023/12/17 12:19:26;;;;;;;0.00;0.00;;;25.40;46.60;;;;;;5051056;28;20249;-48
2023/12/17 12:21:57;;;;;;;0.00;0.00;;;25.30;46.50;;;;;;5051351;28;20648;-45
2023/12/17 12:24:27;;;;;;;0.00;0.00;;;25.30;46.60;;;;;;5051491;28;20222;-46
2023/12/17 12:26:58;;;;;;;0.00;0.00;;;25.30;46.60;;;;;;5051397;28;20195;-44
2023/12/17 12:29:39;;;;;;;0.00;0.00;;;25.30;46.60;;;;;;5050852;28;20219;-43
2023/12/17 12:32:11;;;;;;;0.00;0.00;;;25.30;46.60;;;;;;5050842;28;20534;-48
2023/12/17 12:34:45;;;;;;;0.00;0.00;;;25.30;46.70;;;;;;5034940;28;20208;-42
2023/12/17 12:37:19;;;;;;;0.00;0.00;;;25.30;46.60;;;;;;5031244;28;20670;-48
2023/12/17 12:39:51;;;;;;;0.00;0.00;;;25.20;46.60;;;;;;5031515;28;20203;-43
2023/12/17 12:42:22;;;;;;;0.00;0.00;;;25.20;46.60;;;;;;5043353;28;20207;-46
2023/12/17 12:44:52;;;;;;;0.00;0.00;;;25.20;46.60;;;;;;5050979;28;20226;-41
2023/12/17 12:47:25;;;;;;;0.00;0.00;;;25.10;46.60;;;;;;5050703;28;20199;-47
2023/12/17 12:49:56;;;;;;;0.00;0.00;;;25.10;46.60;;;;;;5039847;28;20592;-47
2023/12/17 12:52:27;;;;;;;0.00;0.00;;;25.10;46.60;;;;;;5048291;28;20203;-43
2023/12/17 12:54:57;;;;;;;0.00;0.00;;;25.10;46.60;;;;;;5050636;28;20215;-50
2023/12/17 12:57:28;;;;;;;0.00;0.00;;;25.10;46.70;;;;;;5051493;28;20200;-46
2023/12/17 12:59:59;;;;;;;0.00;0.00;;;25.10;46.70;;;;;;5051257;28;20203;-41
2023/12/17 13:02:32;;;;;;;0.00;0.00;;;25.10;46.80;;;;;;5050630;28;20562;-40
2023/12/17 13:05:03;;;;;;;0.00;0.00;;;25.00;46.80;;;;;;5050903;28;20219;-47
2023/12/17 13:07:34;;;;;;;0.00;0.00;;;25.00;46.70;;;;;;5050637;28;20195;-43
2023/12/17 13:10:05;;;;;;;0.00;0.00;;;25.00;46.80;;;;;;5051077;28;20227;-41